sensor_id;sensor_type;location;lat;lon;timestamp;P1;durP1;ratioP1;P2;durP2;ratioP2
69573;SDS011;62840;52.366;5.980;2023-01-29T00:02:08;13.63;;;6.10;;
69573;SDS011;62840;52.366;5.980;2023-01-29T00:04:34;11.65;;;5.18;;
69573;SDS011;62840;52.366;5.980;2023-01-29T00:07:00;14.15;;;6.18;;
69573;SDS011;62840;52.366;5.980;2023-01-29T00:09:26;12.97;;;6.47;;
69573;SDS011;62840;52.366;5.980;2023-01-29T00:11:53;12.52;;;6.10;;
69573;SDS011;62840;52.366;5.980;2023-01-29T00:14:18;12.90;;;5.93;;
69573;SDS011;62840;52.366;5.980;2023-01-29T00:16:44;12.37;;;6.13;;
69573;SDS011;62840;52.366;5.980;2023-01-29T00:19:13;14.00;;;5.85;;
69573;SDS011;62840;52.366;5.980;2023-01-29T00:21:38;13.43;;;5.70;;
69573;SDS011;62840;52.366;5.980;2023-01-29T00:24:04;11.40;;;6.13;;
69573;SDS011;62840;52.366;5.980;2023-01-29T00:26:30;13.38;;;6.00;;
69573;SDS011;62840;52.366;5.980;2023-01-29T00:28:56;16.03;;;6.93;;
69573;SDS011;62840;52.366;5.980;2023-01-29T00:31:23;12.95;;;6.30;;
69573;SDS011;62840;52.366;5.980;2023-01-29T00:33:49;11.90;;;5.53;;
69573;SDS011;62840;52.366;5.980;2023-01-29T00:36:18;15.43;;;6.18;;
69573;SDS011;62840;52.366;5.980;2023-01-29T00:38:46;12.43;;;5.27;;
69573;SDS011;62840;52.366;5.980;2023-01-29T00:41:18;11.50;;;5.35;;
69573;SDS011;62840;52.366;5.980;2023-01-29T00:43:44;13.98;;;6.38;;
69573;SDS011;62840;52.366;5.980;2023-01-29T00:46:10;14.23;;;6.23;;
69573;SDS011;62840;52.366;5.980;2023-01-29T00:48:35;13.48;;;6.25;;
69573;SDS011;62840;52.366;5.980;2023-01-29T00:51:02;14.07;;;6.47;;
69573;SDS011;62840;52.366;5.980;2023-01-29T00:53:31;12.70;;;6.10;;
69573;SDS011;62840;52.366;5.980;2023-01-29T00:55:56;14.23;;;6.03;;
69573;SDS011;62840;52.366;5.980;2023-01-29T00:58:22;13.17;;;6.37;;
69573;SDS011;62840;52.366;5.980;2023-01-29T01:00:48;15.80;;;6.13;;
69573;SDS011;62840;52.366;5.980;2023-01-29T01:03:14;15.40;;;6.53;;
69573;SDS011;62840;52.366;5.980;2023-01-29T01:05:41;13.10;;;6.55;;
69573;SDS011;62840;52.366;5.980;2023-01-29T01:08:08;14.95;;;6.53;;
69573;SDS011;62840;52.366;5.980;2023-01-29T01:10:37;16.05;;;6.70;;
69573;SDS011;62840;52.366;5.980;2023-01-29T01:13:03;15.33;;;6.60;;
69573;SDS011;62840;52.366;5.980;2023-01-29T01:15:33;12.98;;;6.35;;
69573;SDS011;62840;52.366;5.980;2023-01-29T01:18:01;13.10;;;6.38;;
69573;SDS011;62840;52.366;5.980;2023-01-29T01:20:28;15.15;;;6.97;;
69573;SDS011;62840;52.366;5.980;2023-01-29T01:22:57;13.75;;;6.80;;
69573;SDS011;62840;52.366;5.980;2023-01-29T01:25:23;13.23;;;6.50;;
69573;SDS011;62840;52.366;5.980;2023-01-29T01:27:53;14.73;;;6.78;;
69573;SDS011;62840;52.366;5.980;2023-01-29T01:30:21;14.55;;;6.32;;
69573;SDS011;62840;52.366;5.980;2023-01-29T01:32:48;14.57;;;7.07;;
69573;SDS011;62840;52.366;5.980;2023-01-29T01:35:14;17.27;;;7.47;;
69573;SDS011;62840;52.366;5.980;2023-01-29T01:37:40;14.98;;;7.15;;
69573;SDS011;62840;52.366;5.980;2023-01-29T01:40:08;14.77;;;7.07;;
69573;SDS011;62840;52.366;5.980;2023-01-29T01:42:39;14.95;;;7.88;;
69573;SDS011;62840;52.366;5.980;2023-01-29T01:45:13;13.57;;;6.70;;
69573;SDS011;62840;52.366;5.980;2023-01-29T01:47:46;14.93;;;7.40;;
69573;SDS011;62840;52.366;5.980;2023-01-29T01:50:17;15.23;;;7.45;;
69573;SDS011;62840;52.366;5.980;2023-01-29T01:52:49;16.08;;;7.75;;
69573;SDS011;62840;52.366;5.980;2023-01-29T01:55:22;16.37;;;7.33;;
69573;SDS011;62840;52.366;5.980;2023-01-29T01:57:54;14.50;;;6.95;;
69573;SDS011;62840;52.366;5.980;2023-01-29T02:00:33;16.55;;;7.05;;
69573;SDS011;62840;52.366;5.980;2023-01-29T02:02:59;17.08;;;7.25;;
69573;SDS011;62840;52.366;5.980;2023-01-29T02:05:28;17.52;;;8.02;;
69573;SDS011;62840;52.366;5.980;2023-01-29T02:07:57;14.43;;;7.03;;
69573;SDS011;62840;52.366;5.980;2023-01-29T02:10:23;14.48;;;7.05;;
69573;SDS011;62840;52.366;5.980;2023-01-29T02:12:55;16.30;;;7.72;;
69573;SDS011;62840;52.366;5.980;2023-01-29T02:15:21;14.93;;;7.13;;
69573;SDS011;62840;52.366;5.980;2023-01-29T02:17:50;13.73;;;7.10;;
69573;SDS011;62840;52.366;5.980;2023-01-29T02:20:17;17.35;;;7.35;;
69573;SDS011;62840;52.366;5.980;2023-01-29T02:22:54;16.33;;;7.90;;
69573;SDS011;62840;52.366;5.980;2023-01-29T02:25:49;14.02;;;7.10;;
69573;SDS011;62840;52.366;5.980;2023-01-29T02:28:54;16.77;;;7.85;;
69573;SDS011;62840;52.366;5.980;2023-01-29T02:31:31;16.63;;;7.60;;
69573;SDS011;62840;52.366;5.980;2023-01-29T02:34:05;18.48;;;7.32;;
69573;SDS011;62840;52.366;5.980;2023-01-29T02:36:44;17.35;;;7.82;;
69573;SDS011;62840;52.366;5.980;2023-01-29T02:39:20;14.65;;;7.20;;
69573;SDS011;62840;52.366;5.980;2023-01-29T02:41:59;16.38;;;7.00;;
69573;SDS011;62840;52.366;5.980;2023-01-29T02:44:39;12.93;;;6.80;;
69573;SDS011;62840;52.366;5.980;2023-01-29T02:47:14;17.02;;;8.45;;
69573;SDS011;62840;52.366;5.980;2023-01-29T02:49:47;15.88;;;7.45;;
69573;SDS011;62840;52.366;5.980;2023-01-29T02:52:20;17.08;;;8.10;;
69573;SDS011;62840;52.366;5.980;2023-01-29T02:54:56;19.67;;;8.20;;
69573;SDS011;62840;52.366;5.980;2023-01-29T02:57:29;15.30;;;7.70;;
69573;SDS011;62840;52.366;5.980;2023-01-29T03:00:04;14.93;;;7.30;;
69573;SDS011;62840;52.366;5.980;2023-01-29T03:02:40;19.52;;;8.48;;
69573;SDS011;62840;52.366;5.980;2023-01-29T03:05:14;15.18;;;7.70;;
69573;SDS011;62840;52.366;5.980;2023-01-29T03:07:47;15.85;;;7.53;;
69573;SDS011;62840;52.366;5.980;2023-01-29T03:10:20;17.63;;;7.60;;
69573;SDS011;62840;52.366;5.980;2023-01-29T03:12:54;16.70;;;7.97;;
69573;SDS011;62840;52.366;5.980;2023-01-29T03:15:32;17.60;;;8.00;;
69573;SDS011;62840;52.366;5.980;2023-01-29T03:18:08;17.58;;;7.82;;
69573;SDS011;62840;52.366;5.980;2023-01-29T03:20:41;16.00;;;7.82;;
69573;SDS011;62840;52.366;5.980;2023-01-29T03:23:12;16.13;;;7.93;;
69573;SDS011;62840;52.366;5.980;2023-01-29T03:25:45;14.63;;;6.95;;
69573;SDS011;62840;52.366;5.980;2023-01-29T03:28:11;16.85;;;7.65;;
69573;SDS011;62840;52.366;5.980;2023-01-29T03:30:44;17.00;;;8.83;;
69573;SDS011;62840;52.366;5.980;2023-01-29T03:33:17;17.10;;;7.60;;
69573;SDS011;62840;52.366;5.980;2023-01-29T03:35:50;16.90;;;8.27;;
69573;SDS011;62840;52.366;5.980;2023-01-29T03:38:25;17.40;;;8.43;;
69573;SDS011;62840;52.366;5.980;2023-01-29T03:40:53;14.75;;;7.07;;
69573;SDS011;62840;52.366;5.980;2023-01-29T03:43:28;14.80;;;7.40;;
69573;SDS011;62840;52.366;5.980;2023-01-29T03:46:05;15.05;;;7.95;;
69573;SDS011;62840;52.366;5.980;2023-01-29T03:48:38;16.35;;;7.50;;
69573;SDS011;62840;52.366;5.980;2023-01-29T03:51:20;17.90;;;7.80;;
69573;SDS011;62840;52.366;5.980;2023-01-29T03:53:55;16.83;;;8.60;;
69573;SDS011;62840;52.366;5.980;2023-01-29T03:56:36;15.07;;;7.33;;
69573;SDS011;62840;52.366;5.980;2023-01-29T03:59:19;17.20;;;7.38;;
69573;SDS011;62840;52.366;5.980;2023-01-29T04:02:01;15.18;;;7.95;;
69573;SDS011;62840;52.366;5.980;2023-01-29T04:04:34;17.35;;;8.52;;
69573;SDS011;62840;52.366;5.980;2023-01-29T04:07:04;17.05;;;7.85;;
69573;SDS011;62840;52.366;5.980;2023-01-29T04:09:37;15.37;;;7.60;;
69573;SDS011;62840;52.366;5.980;2023-01-29T04:12:10;16.90;;;7.53;;
69573;SDS011;62840;52.366;5.980;2023-01-29T04:14:44;15.15;;;7.65;;
69573;SDS011;62840;52.366;5.980;2023-01-29T04:17:16;14.25;;;7.35;;
69573;SDS011;62840;52.366;5.980;2023-01-29T04:19:47;16.45;;;7.32;;
69573;SDS011;62840;52.366;5.980;2023-01-29T04:22:14;16.63;;;8.07;;
69573;SDS011;62840;52.366;5.980;2023-01-29T04:24:47;15.25;;;7.00;;
69573;SDS011;62840;52.366;5.980;2023-01-29T04:27:17;16.05;;;8.10;;
69573;SDS011;62840;52.366;5.980;2023-01-29T04:30:01;15.93;;;7.07;;
69573;SDS011;62840;52.366;5.980;2023-01-29T04:32:53;15.90;;;7.82;;
69573;SDS011;62840;52.366;5.980;2023-01-29T04:35:35;15.63;;;7.73;;
69573;SDS011;62840;52.366;5.980;2023-01-29T04:38:22;14.70;;;7.00;;
69573;SDS011;62840;52.366;5.980;2023-01-29T04:41:06;15.13;;;7.57;;
69573;SDS011;62840;52.366;5.980;2023-01-29T04:43:46;15.57;;;7.28;;
69573;SDS011;62840;52.366;5.980;2023-01-29T04:46:26;16.98;;;7.80;;
69573;SDS011;62840;52.366;5.980;2023-01-29T04:49:13;15.60;;;7.43;;
69573;SDS011;62840;52.366;5.980;2023-01-29T04:51:57;16.98;;;8.05;;
69573;SDS011;62840;52.366;5.980;2023-01-29T04:54:35;15.93;;;7.50;;
69573;SDS011;62840;52.366;5.980;2023-01-29T04:57:18;16.80;;;8.05;;
69573;SDS011;62840;52.366;5.980;2023-01-29T04:59:52;15.95;;;7.40;;
69573;SDS011;62840;52.366;5.980;2023-01-29T05:02:27;13.13;;;7.13;;
69573;SDS011;62840;52.366;5.980;2023-01-29T05:05:00;16.77;;;7.32;;
69573;SDS011;62840;52.366;5.980;2023-01-29T05:07:27;15.75;;;7.20;;
69573;SDS011;62840;52.366;5.980;2023-01-29T05:09:55;15.93;;;7.53;;
69573;SDS011;62840;52.366;5.980;2023-01-29T05:12:21;14.75;;;7.13;;
69573;SDS011;62840;52.366;5.980;2023-01-29T05:14:53;15.30;;;7.30;;
69573;SDS011;62840;52.366;5.980;2023-01-29T05:17:26;15.43;;;7.63;;
69573;SDS011;62840;52.366;5.980;2023-01-29T05:19:53;15.07;;;7.63;;
69573;SDS011;62840;52.366;5.980;2023-01-29T05:22:23;15.73;;;7.32;;
69573;SDS011;62840;52.366;5.980;2023-01-29T05:24:51;16.65;;;7.78;;
69573;SDS011;62840;52.366;5.980;2023-01-29T05:27:18;13.37;;;7.10;;
69573;SDS011;62840;52.366;5.980;2023-01-29T05:29:47;15.40;;;7.10;;
69573;SDS011;62840;52.366;5.980;2023-01-29T05:32:13;17.77;;;8.02;;
69573;SDS011;62840;52.366;5.980;2023-01-29T05:34:39;17.60;;;7.97;;
69573;SDS011;62840;52.366;5.980;2023-01-29T05:37:05;14.05;;;7.25;;
69573;SDS011;62840;52.366;5.980;2023-01-29T05:39:34;16.38;;;8.00;;
69573;SDS011;62840;52.366;5.980;2023-01-29T05:41:59;16.00;;;8.13;;
69573;SDS011;62840;52.366;5.980;2023-01-29T05:44:26;18.13;;;8.23;;
69573;SDS011;62840;52.366;5.980;2023-01-29T05:46:51;18.88;;;8.60;;
69573;SDS011;62840;52.366;5.980;2023-01-29T05:49:17;16.83;;;7.83;;
69573;SDS011;62840;52.366;5.980;2023-01-29T05:51:43;17.58;;;8.13;;
69573;SDS011;62840;52.366;5.980;2023-01-29T05:54:09;20.88;;;8.80;;
69573;SDS011;62840;52.366;5.980;2023-01-29T05:56:38;17.80;;;9.20;;
69573;SDS011;62840;52.366;5.980;2023-01-29T05:59:04;15.98;;;8.23;;
69573;SDS011;62840;52.366;5.980;2023-01-29T06:01:30;17.75;;;8.35;;
69573;SDS011;62840;52.366;5.980;2023-01-29T06:03:56;21.00;;;8.18;;
69573;SDS011;62840;52.366;5.980;2023-01-29T06:06:21;19.25;;;8.95;;
69573;SDS011;62840;52.366;5.980;2023-01-29T06:08:47;18.25;;;8.80;;
69573;SDS011;62840;52.366;5.980;2023-01-29T06:11:13;20.33;;;8.53;;
69573;SDS011;62840;52.366;5.980;2023-01-29T06:13:43;19.70;;;8.73;;
69573;SDS011;62840;52.366;5.980;2023-01-29T06:16:10;19.70;;;9.35;;
69573;SDS011;62840;52.366;5.980;2023-01-29T06:18:37;17.92;;;8.80;;
69573;SDS011;62840;52.366;5.980;2023-01-29T06:21:05;19.07;;;9.10;;
69573;SDS011;62840;52.366;5.980;2023-01-29T06:23:35;19.58;;;9.15;;
69573;SDS011;62840;52.366;5.980;2023-01-29T06:26:01;18.73;;;9.15;;
69573;SDS011;62840;52.366;5.980;2023-01-29T06:28:29;18.38;;;9.05;;
69573;SDS011;62840;52.366;5.980;2023-01-29T06:30:58;19.73;;;9.32;;
69573;SDS011;62840;52.366;5.980;2023-01-29T06:33:25;19.63;;;9.33;;
69573;SDS011;62840;52.366;5.980;2023-01-29T06:35:54;20.60;;;9.45;;
69573;SDS011;62840;52.366;5.980;2023-01-29T06:38:21;17.50;;;8.70;;
69573;SDS011;62840;52.366;5.980;2023-01-29T06:40:47;18.63;;;9.23;;
69573;SDS011;62840;52.366;5.980;2023-01-29T06:43:13;16.47;;;8.87;;
69573;SDS011;62840;52.366;5.980;2023-01-29T06:45:44;19.65;;;9.45;;
69573;SDS011;62840;52.366;5.980;2023-01-29T06:48:14;19.83;;;9.18;;
69573;SDS011;62840;52.366;5.980;2023-01-29T06:50:40;20.13;;;9.10;;
69573;SDS011;62840;52.366;5.980;2023-01-29T06:53:06;18.25;;;8.57;;
69573;SDS011;62840;52.366;5.980;2023-01-29T06:55:32;20.70;;;9.32;;
69573;SDS011;62840;52.366;5.980;2023-01-29T06:57:58;17.23;;;8.93;;
69573;SDS011;62840;52.366;5.980;2023-01-29T07:00:24;16.13;;;9.05;;
69573;SDS011;62840;52.366;5.980;2023-01-29T07:02:49;19.27;;;9.50;;
69573;SDS011;62840;52.366;5.980;2023-01-29T07:05:18;20.50;;;9.13;;
69573;SDS011;62840;52.366;5.980;2023-01-29T07:07:43;20.80;;;9.98;;
69573;SDS011;62840;52.366;5.980;2023-01-29T07:10:09;18.93;;;9.30;;
69573;SDS011;62840;52.366;5.980;2023-01-29T07:12:35;20.60;;;9.18;;
69573;SDS011;62840;52.366;5.980;2023-01-29T07:15:01;19.88;;;9.30;;
69573;SDS011;62840;52.366;5.980;2023-01-29T07:17:27;19.80;;;8.87;;
69573;SDS011;62840;52.366;5.980;2023-01-29T07:19:53;18.08;;;9.05;;
69573;SDS011;62840;52.366;5.980;2023-01-29T07:22:21;20.13;;;9.50;;
69573;SDS011;62840;52.366;5.980;2023-01-29T07:24:47;20.52;;;9.73;;
69573;SDS011;62840;52.366;5.980;2023-01-29T07:27:13;20.88;;;9.50;;
69573;SDS011;62840;52.366;5.980;2023-01-29T07:29:41;19.47;;;9.17;;
69573;SDS011;62840;52.366;5.980;2023-01-29T07:32:07;18.38;;;9.65;;
69573;SDS011;62840;52.366;5.980;2023-01-29T07:34:33;19.35;;;9.57;;
69573;SDS011;62840;52.366;5.980;2023-01-29T07:36:58;18.05;;;9.43;;
69573;SDS011;62840;52.366;5.980;2023-01-29T07:39:27;20.50;;;9.48;;
69573;SDS011;62840;52.366;5.980;2023-01-29T07:41:52;18.10;;;9.43;;
69573;SDS011;62840;52.366;5.980;2023-01-29T07:44:18;18.27;;;9.18;;
69573;SDS011;62840;52.366;5.980;2023-01-29T07:46:44;17.47;;;9.77;;
69573;SDS011;62840;52.366;5.980;2023-01-29T07:49:10;19.60;;;9.43;;
69573;SDS011;62840;52.366;5.980;2023-01-29T07:51:35;18.15;;;9.00;;
69573;SDS011;62840;52.366;5.980;2023-01-29T07:54:01;18.35;;;9.38;;
69573;SDS011;62840;52.366;5.980;2023-01-29T07:56:30;19.20;;;9.18;;
69573;SDS011;62840;52.366;5.980;2023-01-29T07:58:55;18.57;;;9.70;;
69573;SDS011;62840;52.366;5.980;2023-01-29T08:01:21;21.35;;;11.07;;
69573;SDS011;62840;52.366;5.980;2023-01-29T08:03:47;18.75;;;9.38;;
69573;SDS011;62840;52.366;5.980;2023-01-29T08:06:12;19.95;;;10.02;;
69573;SDS011;62840;52.366;5.980;2023-01-29T08:08:38;19.20;;;9.23;;
69573;SDS011;62840;52.366;5.980;2023-01-29T08:11:04;18.30;;;9.32;;
69573;SDS011;62840;52.366;5.980;2023-01-29T08:13:32;19.67;;;9.45;;
69573;SDS011;62840;52.366;5.980;2023-01-29T08:15:59;20.27;;;9.70;;
69573;SDS011;62840;52.366;5.980;2023-01-29T08:18:25;18.03;;;9.60;;
69573;SDS011;62840;52.366;5.980;2023-01-29T08:20:51;20.17;;;10.15;;
69573;SDS011;62840;52.366;5.980;2023-01-29T08:23:17;19.23;;;10.02;;
69573;SDS011;62840;52.366;5.980;2023-01-29T08:25:43;20.67;;;9.97;;
69573;SDS011;62840;52.366;5.980;2023-01-29T08:28:09;19.35;;;9.30;;
69573;SDS011;62840;52.366;5.980;2023-01-29T08:30:38;19.38;;;9.60;;
69573;SDS011;62840;52.366;5.980;2023-01-29T08:33:04;17.13;;;9.10;;
69573;SDS011;62840;52.366;5.980;2023-01-29T08:35:30;17.33;;;9.05;;
69573;SDS011;62840;52.366;5.980;2023-01-29T08:37:56;19.70;;;9.77;;
69573;SDS011;62840;52.366;5.980;2023-01-29T08:40:24;18.10;;;9.03;;
69573;SDS011;62840;52.366;5.980;2023-01-29T08:42:51;16.27;;;8.18;;
69573;SDS011;62840;52.366;5.980;2023-01-29T08:45:17;18.70;;;9.25;;
69573;SDS011;62840;52.366;5.980;2023-01-29T08:47:48;18.70;;;9.13;;
69573;SDS011;62840;52.366;5.980;2023-01-29T08:50:14;17.40;;;9.30;;
69573;SDS011;62840;52.366;5.980;2023-01-29T08:52:41;16.35;;;9.15;;
69573;SDS011;62840;52.366;5.980;2023-01-29T08:55:07;17.02;;;9.18;;
69573;SDS011;62840;52.366;5.980;2023-01-29T08:57:34;18.07;;;9.80;;
69573;SDS011;62840;52.366;5.980;2023-01-29T08:59:59;17.73;;;9.13;;
69573;SDS011;62840;52.366;5.980;2023-01-29T09:02:25;18.27;;;8.93;;
69573;SDS011;62840;52.366;5.980;2023-01-29T09:04:53;16.77;;;9.10;;
69573;SDS011;62840;52.366;5.980;2023-01-29T09:07:19;18.95;;;9.75;;
69573;SDS011;62840;52.366;5.980;2023-01-29T09:09:45;19.97;;;9.00;;
69573;SDS011;62840;52.366;5.980;2023-01-29T09:12:11;17.98;;;8.93;;
69573;SDS011;62840;52.366;5.980;2023-01-29T09:14:36;18.42;;;8.63;;
69573;SDS011;62840;52.366;5.980;2023-01-29T09:17:02;16.85;;;8.60;;
69573;SDS011;62840;52.366;5.980;2023-01-29T09:19:28;19.33;;;9.48;;
69573;SDS011;62840;52.366;5.980;2023-01-29T09:21:56;17.10;;;8.90;;
69573;SDS011;62840;52.366;5.980;2023-01-29T09:24:22;16.73;;;8.68;;
69573;SDS011;62840;52.366;5.980;2023-01-29T09:26:50;19.30;;;9.63;;
69573;SDS011;62840;52.366;5.980;2023-01-29T09:29:16;18.92;;;9.35;;
69573;SDS011;62840;52.366;5.980;2023-01-29T09:31:41;17.70;;;9.27;;
69573;SDS011;62840;52.366;5.980;2023-01-29T09:34:07;16.20;;;8.93;;
69573;SDS011;62840;52.366;5.980;2023-01-29T09:36:33;18.60;;;8.73;;
69573;SDS011;62840;52.366;5.980;2023-01-29T09:39:01;15.43;;;8.93;;
69573;SDS011;62840;52.366;5.980;2023-01-29T09:41:32;17.88;;;9.32;;
69573;SDS011;62840;52.366;5.980;2023-01-29T09:44:17;19.55;;;9.38;;
69573;SDS011;62840;52.366;5.980;2023-01-29T09:46:56;16.13;;;9.18;;
69573;SDS011;62840;52.366;5.980;2023-01-29T09:49:28;18.37;;;9.33;;
69573;SDS011;62840;52.366;5.980;2023-01-29T09:52:01;16.02;;;7.85;;
69573;SDS011;62840;52.366;5.980;2023-01-29T09:54:43;18.45;;;9.57;;
69573;SDS011;62840;52.366;5.980;2023-01-29T09:57:23;17.08;;;8.70;;
69573;SDS011;62840;52.366;5.980;2023-01-29T09:59:58;18.05;;;8.52;;
69573;SDS011;62840;52.366;5.980;2023-01-29T10:02:32;15.53;;;7.80;;
69573;SDS011;62840;52.366;5.980;2023-01-29T10:05:30;17.10;;;8.70;;
69573;SDS011;62840;52.366;5.980;2023-01-29T10:08:20;17.85;;;9.25;;
69573;SDS011;62840;52.366;5.980;2023-01-29T10:11:11;16.52;;;8.45;;
69573;SDS011;62840;52.366;5.980;2023-01-29T10:13:55;17.23;;;9.03;;
69573;SDS011;62840;52.366;5.980;2023-01-29T10:16:40;17.75;;;8.48;;
69573;SDS011;62840;52.366;5.980;2023-01-29T10:19:31;17.08;;;8.20;;
69573;SDS011;62840;52.366;5.980;2023-01-29T10:22:24;17.50;;;8.25;;
69573;SDS011;62840;52.366;5.980;2023-01-29T10:25:24;17.77;;;8.77;;
69573;SDS011;62840;52.366;5.980;2023-01-29T10:27:55;16.83;;;8.70;;
69573;SDS011;62840;52.366;5.980;2023-01-29T10:30:27;16.38;;;8.40;;
69573;SDS011;62840;52.366;5.980;2023-01-29T10:32:58;18.15;;;8.98;;
69573;SDS011;62840;52.366;5.980;2023-01-29T10:35:28;17.33;;;8.77;;
69573;SDS011;62840;52.366;5.980;2023-01-29T10:38:05;16.80;;;8.52;;
69573;SDS011;62840;52.366;5.980;2023-01-29T10:40:49;17.40;;;8.93;;
69573;SDS011;62840;52.366;5.980;2023-01-29T10:43:29;19.75;;;8.88;;
69573;SDS011;62840;52.366;5.980;2023-01-29T10:46:09;18.58;;;8.45;;
69573;SDS011;62840;52.366;5.980;2023-01-29T10:48:53;17.02;;;8.63;;
69573;SDS011;62840;52.366;5.980;2023-01-29T10:51:36;18.15;;;8.80;;
69573;SDS011;62840;52.366;5.980;2023-01-29T10:54:27;18.90;;;9.90;;
69573;SDS011;62840;52.366;5.980;2023-01-29T10:57:14;18.23;;;9.00;;
69573;SDS011;62840;52.366;5.980;2023-01-29T11:00:02;18.90;;;9.50;;
69573;SDS011;62840;52.366;5.980;2023-01-29T11:02:35;18.42;;;9.20;;
69573;SDS011;62840;52.366;5.980;2023-01-29T11:05:00;15.53;;;8.77;;
69573;SDS011;62840;52.366;5.980;2023-01-29T11:07:26;18.90;;;9.25;;
69573;SDS011;62840;52.366;5.980;2023-01-29T11:09:54;18.80;;;8.90;;
69573;SDS011;62840;52.366;5.980;2023-01-29T11:12:27;18.70;;;9.10;;
69573;SDS011;62840;52.366;5.980;2023-01-29T11:14:56;17.92;;;9.15;;
69573;SDS011;62840;52.366;5.980;2023-01-29T11:17:30;17.83;;;9.00;;
69573;SDS011;62840;52.366;5.980;2023-01-29T11:19:56;15.35;;;7.72;;
69573;SDS011;62840;52.366;5.980;2023-01-29T11:22:23;18.97;;;9.50;;
69573;SDS011;62840;52.366;5.980;2023-01-29T11:25:06;17.25;;;9.13;;
69573;SDS011;62840;52.366;5.980;2023-01-29T11:27:41;19.17;;;9.05;;
69573;SDS011;62840;52.366;5.980;2023-01-29T11:30:22;18.05;;;9.13;;
69573;SDS011;62840;52.366;5.980;2023-01-29T11:32:53;18.90;;;9.88;;
69573;SDS011;62840;52.366;5.980;2023-01-29T11:35:30;17.73;;;8.87;;
69573;SDS011;62840;52.366;5.980;2023-01-29T11:38:04;18.92;;;8.80;;
69573;SDS011;62840;52.366;5.980;2023-01-29T11:40:34;20.92;;;10.10;;
69573;SDS011;62840;52.366;5.980;2023-01-29T11:43:11;19.30;;;9.25;;
69573;SDS011;62840;52.366;5.980;2023-01-29T11:45:50;17.52;;;9.18;;
69573;SDS011;62840;52.366;5.980;2023-01-29T11:48:22;19.67;;;10.33;;
69573;SDS011;62840;52.366;5.980;2023-01-29T11:50:57;19.08;;;9.55;;
69573;SDS011;62840;52.366;5.980;2023-01-29T11:53:33;16.92;;;8.82;;
69573;SDS011;62840;52.366;5.980;2023-01-29T11:56:04;19.23;;;8.98;;
69573;SDS011;62840;52.366;5.980;2023-01-29T11:58:47;18.80;;;9.05;;
69573;SDS011;62840;52.366;5.980;2023-01-29T12:01:28;21.57;;;9.77;;
69573;SDS011;62840;52.366;5.980;2023-01-29T12:03:58;17.20;;;8.63;;
69573;SDS011;62840;52.366;5.980;2023-01-29T12:06:27;20.90;;;10.52;;
69573;SDS011;62840;52.366;5.980;2023-01-29T12:09:00;19.98;;;9.70;;
69573;SDS011;62840;52.366;5.980;2023-01-29T12:11:34;20.60;;;9.73;;
69573;SDS011;62840;52.366;5.980;2023-01-29T12:14:01;16.60;;;9.20;;
69573;SDS011;62840;52.366;5.980;2023-01-29T12:16:34;17.55;;;9.40;;
69573;SDS011;62840;52.366;5.980;2023-01-29T12:19:13;18.60;;;9.45;;
69573;SDS011;62840;52.366;5.980;2023-01-29T12:21:51;20.08;;;10.05;;
69573;SDS011;62840;52.366;5.980;2023-01-29T12:24:29;20.53;;;9.23;;
69573;SDS011;62840;52.366;5.980;2023-01-29T12:27:04;20.10;;;9.32;;
69573;SDS011;62840;52.366;5.980;2023-01-29T12:29:41;20.13;;;9.80;;
69573;SDS011;62840;52.366;5.980;2023-01-29T12:32:18;19.00;;;9.20;;
69573;SDS011;62840;52.366;5.980;2023-01-29T12:34:57;20.45;;;9.50;;
69573;SDS011;62840;52.366;5.980;2023-01-29T12:37:34;22.10;;;10.23;;
69573;SDS011;62840;52.366;5.980;2023-01-29T12:40:12;21.98;;;10.50;;
69573;SDS011;62840;52.366;5.980;2023-01-29T12:42:42;18.80;;;9.68;;
69573;SDS011;62840;52.366;5.980;2023-01-29T12:45:15;20.67;;;9.55;;
69573;SDS011;62840;52.366;5.980;2023-01-29T12:47:47;21.65;;;9.65;;
69573;SDS011;62840;52.366;5.980;2023-01-29T12:50:19;19.77;;;9.17;;
69573;SDS011;62840;52.366;5.980;2023-01-29T12:52:52;19.90;;;9.98;;
69573;SDS011;62840;52.366;5.980;2023-01-29T12:55:23;21.50;;;11.55;;
69573;SDS011;62840;52.366;5.980;2023-01-29T12:57:57;27.30;;;10.65;;
69573;SDS011;62840;52.366;5.980;2023-01-29T13:00:27;20.92;;;10.00;;
69573;SDS011;62840;52.366;5.980;2023-01-29T13:03:03;21.73;;;10.00;;
69573;SDS011;62840;52.366;5.980;2023-01-29T13:05:44;22.25;;;10.25;;
69573;SDS011;62840;52.366;5.980;2023-01-29T13:08:17;21.70;;;9.60;;
69573;SDS011;62840;52.366;5.980;2023-01-29T13:10:49;24.85;;;10.65;;
69573;SDS011;62840;52.366;5.980;2023-01-29T13:13:21;21.60;;;9.82;;
69573;SDS011;62840;52.366;5.980;2023-01-29T13:15:54;22.17;;;10.20;;
69573;SDS011;62840;52.366;5.980;2023-01-29T13:18:35;18.95;;;9.38;;
69573;SDS011;62840;52.366;5.980;2023-01-29T13:21:10;22.45;;;10.35;;
69573;SDS011;62840;52.366;5.980;2023-01-29T13:23:42;19.23;;;9.27;;
69573;SDS011;62840;52.366;5.980;2023-01-29T13:26:12;24.30;;;10.68;;
69573;SDS011;62840;52.366;5.980;2023-01-29T13:28:42;22.97;;;10.77;;
69573;SDS011;62840;52.366;5.980;2023-01-29T13:31:11;21.05;;;10.38;;
69573;SDS011;62840;52.366;5.980;2023-01-29T13:33:54;22.63;;;10.82;;
69573;SDS011;62840;52.366;5.980;2023-01-29T13:36:28;20.48;;;9.95;;
69573;SDS011;62840;52.366;5.980;2023-01-29T13:38:58;23.55;;;11.07;;
69573;SDS011;62840;52.366;5.980;2023-01-29T13:41:32;21.90;;;10.77;;
69573;SDS011;62840;52.366;5.980;2023-01-29T13:44:03;23.50;;;10.77;;
69573;SDS011;62840;52.366;5.980;2023-01-29T13:46:41;23.98;;;10.57;;
69573;SDS011;62840;52.366;5.980;2023-01-29T13:49:23;22.80;;;11.18;;
69573;SDS011;62840;52.366;5.980;2023-01-29T13:51:57;24.23;;;11.52;;
69573;SDS011;62840;52.366;5.980;2023-01-29T13:54:37;22.73;;;10.83;;
69573;SDS011;62840;52.366;5.980;2023-01-29T13:57:04;22.70;;;10.48;;
69573;SDS011;62840;52.366;5.980;2023-01-29T14:02:19;22.10;;;11.33;;
69573;SDS011;62840;52.366;5.980;2023-01-29T14:04:53;23.40;;;10.57;;
69573;SDS011;62840;52.366;5.980;2023-01-29T14:08:02;23.95;;;11.52;;
69573;SDS011;62840;52.366;5.980;2023-01-29T14:11:26;22.40;;;11.02;;
69573;SDS011;62840;52.366;5.980;2023-01-29T14:13:59;21.95;;;10.50;;
69573;SDS011;62840;52.366;5.980;2023-01-29T14:16:26;24.73;;;11.77;;
69573;SDS011;62840;52.366;5.980;2023-01-29T14:18:59;24.92;;;11.50;;
69573;SDS011;62840;52.366;5.980;2023-01-29T14:21:32;23.40;;;11.77;;
69573;SDS011;62840;52.366;5.980;2023-01-29T14:24:07;23.38;;;11.40;;
69573;SDS011;62840;52.366;5.980;2023-01-29T14:26:42;24.60;;;11.07;;
69573;SDS011;62840;52.366;5.980;2023-01-29T14:29:16;21.77;;;10.57;;
69573;SDS011;62840;52.366;5.980;2023-01-29T14:31:48;24.58;;;11.50;;
69573;SDS011;62840;52.366;5.980;2023-01-29T14:34:19;27.73;;;12.25;;
69573;SDS011;62840;52.366;5.980;2023-01-29T14:36:54;23.90;;;11.10;;
69573;SDS011;62840;52.366;5.980;2023-01-29T14:39:30;23.70;;;11.27;;
69573;SDS011;62840;52.366;5.980;2023-01-29T14:42:02;23.33;;;10.90;;
69573;SDS011;62840;52.366;5.980;2023-01-29T14:44:55;21.20;;;10.93;;
69573;SDS011;62840;52.366;5.980;2023-01-29T14:50:39;22.67;;;11.35;;
69573;SDS011;62840;52.366;5.980;2023-01-29T14:53:15;22.27;;;10.90;;
69573;SDS011;62840;52.366;5.980;2023-01-29T14:55:49;22.75;;;10.60;;
69573;SDS011;62840;52.366;5.980;2023-01-29T14:58:23;22.52;;;11.95;;
69573;SDS011;62840;52.366;5.980;2023-01-29T15:01:00;24.67;;;11.85;;
69573;SDS011;62840;52.366;5.980;2023-01-29T15:03:42;21.90;;;10.82;;
69573;SDS011;62840;52.366;5.980;2023-01-29T15:06:14;21.03;;;10.77;;
69573;SDS011;62840;52.366;5.980;2023-01-29T15:08:52;25.30;;;10.90;;